createdAt,value
2023-03-21T00:01:30.535Z,13.55
2023-03-21T00:03:58.084Z,13.52
2023-03-21T00:06:48.102Z,13.54
2023-03-21T00:09:37.029Z,13.53
2023-03-21T00:12:09.432Z,13.53
2023-03-21T00:14:46.597Z,13.53
2023-03-21T00:17:44.946Z,13.53
2023-03-21T00:20:21.878Z,13.45
2023-03-21T00:22:54.049Z,13.45
2023-03-21T00:25:20.965Z,13.46
2023-03-21T00:28:01.440Z,13.43
2023-03-21T00:30:36.904Z,13.42
2023-03-21T00:33:22.930Z,13.41
2023-03-21T00:36:43.980Z,13.40
2023-03-21T00:42:21.763Z,13.39
2023-03-21T00:44:59.761Z,13.36
2023-03-21T00:47:45.173Z,13.34
2023-03-21T00:53:11.277Z,13.10
2023-03-21T00:55:45.390Z,13.05
2023-03-21T00:58:39.895Z,13.08
2023-03-21T01:01:09.526Z,13.11
2023-03-21T01:03:42.857Z,13.16
2023-03-21T01:06:19.335Z,13.20
2023-03-21T01:09:01.995Z,13.24
2023-03-21T01:11:31.857Z,13.27
2023-03-21T01:14:21.922Z,13.25
2023-03-21T01:17:09.219Z,13.19
2023-03-21T01:19:51.113Z,13.19
2023-03-21T01:22:20.673Z,13.15
2023-03-21T01:24:55.390Z,13.12
2023-03-21T01:27:25.855Z,13.13
2023-03-21T01:29:53.477Z,13.17
2023-03-21T01:32:23.758Z,13.16
2023-03-21T01:34:50.819Z,13.11
2023-03-21T01:37:20.376Z,13.15
2023-03-21T01:39:50.663Z,13.16
2023-03-21T01:42:23.489Z,13.14
2023-03-21T01:45:02.893Z,13.12
2023-03-21T01:47:58.234Z,13.03
2023-03-21T01:50:34.376Z,13.00
2023-03-21T01:53:18.507Z,13.02
2023-03-21T01:55:48.047Z,13.06
2023-03-21T01:58:35.838Z,13.09
2023-03-21T02:01:10.151Z,13.08
2023-03-21T02:03:58.409Z,13.08
2023-03-21T02:07:07.462Z,13.06
2023-03-21T02:09:53.437Z,12.96
2023-03-21T02:12:23.958Z,12.95
2023-03-21T02:15:11.854Z,12.95
2023-03-21T02:18:14.914Z,12.97
2023-03-21T02:21:16.465Z,12.98
2023-03-21T02:24:04.977Z,12.97
2023-03-21T02:26:46.482Z,12.93
2023-03-21T02:29:43.811Z,12.93
2023-03-21T02:32:37.538Z,12.92
2023-03-21T02:35:32.253Z,12.92
2023-03-21T02:38:19.663Z,12.92
2023-03-21T02:41:22.385Z,12.91
2023-03-21T02:44:01.129Z,12.87
2023-03-21T02:46:49.038Z,12.90
2023-03-21T02:49:46.668Z,12.89
2023-03-21T02:52:45.048Z,12.90
2023-03-21T02:56:08.941Z,12.90
2023-03-21T02:58:43.822Z,12.87
2023-03-21T03:04:36.517Z,12.86
2023-03-21T03:07:06.819Z,12.88
2023-03-21T03:10:00.806Z,12.90
2023-03-21T03:12:36.429Z,12.89
2023-03-21T03:15:18.806Z,12.87
2023-03-21T03:18:12.700Z,12.86
2023-03-21T03:21:00.981Z,12.83
2023-03-21T03:23:40.489Z,12.80
2023-03-21T03:26:14.699Z,12.74
2023-03-21T03:28:53.336Z,12.66
2023-03-21T03:31:30.376Z,12.66
2023-03-21T03:34:07.420Z,12.66
2023-03-21T03:36:48.018Z,12.66
2023-03-21T03:39:18.636Z,12.69
2023-03-21T03:42:27.158Z,12.71
2023-03-21T03:44:50.822Z,12.72
2023-03-21T03:47:42.099Z,12.74
2023-03-21T03:50:30.428Z,12.70
2023-03-21T03:53:07.138Z,12.65
2023-03-21T03:55:40.903Z,12.57
2023-03-21T03:58:22.113Z,12.55
2023-03-21T04:00:55.463Z,12.55
2023-03-21T04:03:23.655Z,12.56
2023-03-21T04:05:51.270Z,12.58
2023-03-21T04:08:18.830Z,12.61
2023-03-21T04:10:54.942Z,12.60
2023-03-21T04:13:26.455Z,12.60
2023-03-21T04:16:05.676Z,12.64
2023-03-21T04:18:38.736Z,12.67
2023-03-21T04:21:11.238Z,12.67
2023-03-21T04:23:40.174Z,12.71
2023-03-21T04:26:09.134Z,12.73
2023-03-21T04:28:42.078Z,12.73
2023-03-21T04:31:26.016Z,12.70
2023-03-21T04:34:10.072Z,12.71
2023-03-21T04:36:47.485Z,12.69
2023-03-21T04:39:16.253Z,12.64
2023-03-21T04:41:48.537Z,12.65
2023-03-21T04:44:17.609Z,12.63
2023-03-21T04:46:46.864Z,12.61
2023-03-21T04:49:19.308Z,12.59
2023-03-21T04:51:46.670Z,12.53
2023-03-21T04:54:20.373Z,12.47
2023-03-21T04:56:47.723Z,12.45
2023-03-21T04:59:19.000Z,12.46
2023-03-21T05:01:46.664Z,12.46
2023-03-21T05:04:15.503Z,12.47
2023-03-21T05:06:52.197Z,12.33
2023-03-21T05:09:20.473Z,12.31
2023-03-21T05:11:50.065Z,12.27
2023-03-21T05:14:22.247Z,12.11
2023-03-21T05:16:53.803Z,11.90
2023-03-21T05:19:36.413Z,11.79
2023-03-21T05:22:11.112Z,11.87
2023-03-21T05:24:42.125Z,12.05
2023-03-21T05:27:35.232Z,12.15
2023-03-21T05:30:18.769Z,12.06
2023-03-21T05:32:51.844Z,11.77
2023-03-21T05:35:20.798Z,11.60
2023-03-21T05:37:47.985Z,11.55
2023-03-21T05:40:15.955Z,11.56
2023-03-21T05:42:47.517Z,11.68
2023-03-21T05:45:22.403Z,11.70
2023-03-21T05:47:54.238Z,11.75
2023-03-21T05:50:29.021Z,11.69
2023-03-21T05:53:15.372Z,11.63
2023-03-21T05:55:47.778Z,11.70
2023-03-21T05:58:30.175Z,11.80
2023-03-21T06:00:59.290Z,11.89
2023-03-21T06:03:32.905Z,11.98
2023-03-21T06:06:10.944Z,12.21
2023-03-21T06:08:49.156Z,12.45
2023-03-21T06:11:49.930Z,12.63
2023-03-21T06:14:25.992Z,12.80
2023-03-21T06:17:16.054Z,12.98
2023-03-21T06:19:50.032Z,13.22
2023-03-21T06:22:27.725Z,13.39
2023-03-21T06:24:55.654Z,13.52
2023-03-21T06:27:23.297Z,13.66
2023-03-21T06:29:54.518Z,13.71
2023-03-21T06:32:22.603Z,13.47
2023-03-21T06:34:55.100Z,13.48
2023-03-21T06:37:24.308Z,13.63
2023-03-21T06:39:51.772Z,13.70
2023-03-21T06:42:24.066Z,13.86
2023-03-21T06:44:55.800Z,14.04
2023-03-21T06:47:22.817Z,14.14
2023-03-21T06:49:50.562Z,14.17
2023-03-21T06:52:17.531Z,14.28
2023-03-21T06:54:44.871Z,14.39
2023-03-21T06:57:14.609Z,14.50
2023-03-21T06:59:45.189Z,14.56
2023-03-21T07:02:18.778Z,14.79
2023-03-21T07:04:58.134Z,15.07
2023-03-21T07:07:29.911Z,15.32
2023-03-21T07:09:57.920Z,15.33
2023-03-21T07:12:26.962Z,15.32
2023-03-21T07:15:20.009Z,15.27
2023-03-21T07:17:47.424Z,15.34
2023-03-21T07:20:14.865Z,15.18
2023-03-21T07:22:43.040Z,15.31
2023-03-21T07:25:11.196Z,15.42
2023-03-21T07:27:41.069Z,15.61
2023-03-21T07:30:12.790Z,15.74
2023-03-21T07:32:40.471Z,15.85
2023-03-21T07:35:09.267Z,15.88
2023-03-21T07:37:38.148Z,15.71
2023-03-21T07:40:10.562Z,15.66
2023-03-21T07:42:39.904Z,15.68
2023-03-21T07:45:10.998Z,15.70
2023-03-21T07:47:37.887Z,15.70
2023-03-21T07:50:05.288Z,15.60
2023-03-21T07:52:33.108Z,15.63
2023-03-21T07:55:00.540Z,15.72
2023-03-21T07:57:27.408Z,15.89
2023-03-21T07:59:54.519Z,16.12
2023-03-21T08:02:21.624Z,16.27
2023-03-21T08:04:48.549Z,16.32
2023-03-21T08:07:15.430Z,16.40
2023-03-21T08:09:44.406Z,16.69
2023-03-21T08:12:11.809Z,17.00
2023-03-21T08:14:39.135Z,17.17
2023-03-21T08:17:06.559Z,17.44
2023-03-21T08:19:37.669Z,17.54
2023-03-21T08:22:07.508Z,17.83
2023-03-21T08:24:34.519Z,18.05
2023-03-21T08:27:02.587Z,18.15
2023-03-21T08:29:30.059Z,18.00
2023-03-21T08:31:58.195Z,17.96
2023-03-21T08:34:30.666Z,18.21
2023-03-21T08:36:58.259Z,18.16
2023-03-21T08:39:26.380Z,18.28
2023-03-21T08:41:54.145Z,18.53
2023-03-21T08:44:22.139Z,18.71
2023-03-21T08:46:49.439Z,18.79
2023-03-21T08:49:16.949Z,18.94
2023-03-21T08:51:45.920Z,19.15
2023-03-21T08:54:21.781Z,19.43
2023-03-21T08:56:52.303Z,19.56
2023-03-21T08:59:21.452Z,19.54
2023-03-21T09:01:48.793Z,19.51
2023-03-21T09:04:19.162Z,19.37
2023-03-21T09:06:50.412Z,19.20
2023-03-21T09:09:18.073Z,18.99
2023-03-21T09:11:45.452Z,18.67
2023-03-21T09:14:12.604Z,18.44
2023-03-21T09:16:40.154Z,18.43
2023-03-21T09:19:09.534Z,18.43
2023-03-21T09:21:36.892Z,18.55
2023-03-21T09:24:05.991Z,18.58
2023-03-21T09:26:33.938Z,18.58
2023-03-21T09:29:01.125Z,18.69
2023-03-21T09:31:28.508Z,18.79
2023-03-21T09:33:58.103Z,18.90
2023-03-21T09:36:29.120Z,19.11
2023-03-21T09:38:57.097Z,19.44
2023-03-21T09:41:45.861Z,19.70
2023-03-21T09:44:40.309Z,19.92
2023-03-21T09:47:34.910Z,20.01
2023-03-21T09:50:38.950Z,20.46
2023-03-21T09:53:19.310Z,20.99
2023-03-21T09:55:47.387Z,21.41
2023-03-21T09:58:37.504Z,21.80
2023-03-21T10:01:22.490Z,21.67
2023-03-21T10:03:55.413Z,21.79
2023-03-21T10:06:29.462Z,21.59
2023-03-21T10:09:06.767Z,21.12
2023-03-21T10:11:47.862Z,20.60
2023-03-21T10:14:14.716Z,20.12
2023-03-21T10:16:56.661Z,19.94
2023-03-21T10:19:24.157Z,19.59
2023-03-21T10:22:00.883Z,19.55
2023-03-21T10:24:31.857Z,19.39
2023-03-21T10:26:59.363Z,19.38
2023-03-21T10:29:38.803Z,19.38
2023-03-21T10:32:10.610Z,19.50
2023-03-21T10:34:46.899Z,19.39
2023-03-21T10:37:14.526Z,19.55
2023-03-21T10:39:45.032Z,19.63
2023-03-21T10:42:27.460Z,19.55
2023-03-21T10:44:57.584Z,19.46
2023-03-21T10:47:33.685Z,19.39
2023-03-21T10:50:13.067Z,19.21
2023-03-21T10:53:01.196Z,19.05
2023-03-21T10:55:33.615Z,18.94
2023-03-21T10:58:19.004Z,18.88
2023-03-21T11:00:48.338Z,18.79
2023-03-21T11:03:23.818Z,18.66
2023-03-21T11:05:57.629Z,18.50
2023-03-21T11:08:25.417Z,18.51
2023-03-21T11:11:05.765Z,18.48
2023-03-21T11:13:44.994Z,18.57
2023-03-21T11:16:23.271Z,18.64
2023-03-21T11:18:53.027Z,18.50
2023-03-21T11:21:21.661Z,18.28
2023-03-21T11:23:51.920Z,18.06
2023-03-21T11:26:24.336Z,18.16
2023-03-21T11:28:52.176Z,18.19
2023-03-21T11:31:19.394Z,18.03
2023-03-21T11:33:57.214Z,18.08
2023-03-21T11:36:24.242Z,18.24
2023-03-21T11:39:00.257Z,18.53
2023-03-21T11:41:33.646Z,18.97
2023-03-21T11:44:02.486Z,19.15
2023-03-21T11:46:32.276Z,19.09
2023-03-21T11:49:00.625Z,19.36
2023-03-21T11:51:51.419Z,19.47
2023-03-21T11:54:19.541Z,19.10
2023-03-21T11:56:53.160Z,19.02
2023-03-21T11:59:45.893Z,18.76
2023-03-21T12:02:37.330Z,18.59
2023-03-21T12:05:20.836Z,18.49
2023-03-21T12:07:50.529Z,18.70
2023-03-21T12:10:17.185Z,19.17
2023-03-21T12:13:18.080Z,19.51
2023-03-21T12:15:48.087Z,19.71
2023-03-21T12:18:49.624Z,19.91
2023-03-21T12:21:42.355Z,19.87
2023-03-21T12:24:19.956Z,19.92
2023-03-21T12:27:01.942Z,20.56
2023-03-21T12:29:56.935Z,21.17
2023-03-21T12:32:35.625Z,21.18
2023-03-21T12:35:39.949Z,20.97
2023-03-21T12:38:18.044Z,21.00
2023-03-21T12:41:11.830Z,20.90
2023-03-21T12:43:55.119Z,21.00
2023-03-21T12:46:40.630Z,20.79
2023-03-21T12:49:38.602Z,20.60
2023-03-21T12:52:12.311Z,20.77
2023-03-21T12:54:52.428Z,20.97
2023-03-21T12:57:27.511Z,21.01
2023-03-21T13:00:20.164Z,20.54
2023-03-21T13:02:56.101Z,19.96
2023-03-21T13:05:40.775Z,19.79
2023-03-21T13:08:24.074Z,19.21
2023-03-21T13:10:52.407Z,18.78
2023-03-21T13:14:00.378Z,18.65
2023-03-21T13:16:31.240Z,18.72
2023-03-21T13:19:24.409Z,18.43
2023-03-21T13:22:18.527Z,18.30
2023-03-21T13:24:47.404Z,18.28
2023-03-21T13:27:17.265Z,18.61
2023-03-21T13:29:55.098Z,18.84
2023-03-21T13:32:37.578Z,19.01
2023-03-21T13:35:19.673Z,18.88
2023-03-21T13:37:57.795Z,18.53
2023-03-21T13:40:50.072Z,18.63
2023-03-21T13:43:46.408Z,18.59
2023-03-21T13:46:53.662Z,18.48
2023-03-21T13:49:32.515Z,18.18
2023-03-21T13:52:02.207Z,18.25
2023-03-21T13:54:55.016Z,18.22
2023-03-21T13:57:33.330Z,18.12
2023-03-21T14:00:30.559Z,17.97
2023-03-21T14:03:17.583Z,17.81
2023-03-21T14:05:51.104Z,17.76
2023-03-21T14:08:28.061Z,17.88
2023-03-21T14:11:06.559Z,17.83
2023-03-21T14:13:38.015Z,17.71
2023-03-21T14:16:15.668Z,17.78
2023-03-21T14:18:54.430Z,17.79
2023-03-21T14:21:30.448Z,17.87
2023-03-21T14:24:14.155Z,17.93
2023-03-21T14:26:45.988Z,17.93
2023-03-21T14:29:31.989Z,17.83
2023-03-21T14:32:03.939Z,17.61
2023-03-21T14:34:35.014Z,17.56
2023-03-21T14:37:02.820Z,17.57
2023-03-21T14:39:35.400Z,17.52
2023-03-21T14:42:15.867Z,17.44
2023-03-21T14:44:55.416Z,17.34
2023-03-21T14:47:26.095Z,17.39
2023-03-21T14:49:53.870Z,17.50
2023-03-21T14:52:35.374Z,17.60
2023-03-21T14:55:11.467Z,17.53
2023-03-21T14:57:39.369Z,17.34
2023-03-21T15:00:14.719Z,17.43
2023-03-21T15:02:46.042Z,17.33
2023-03-21T15:05:25.410Z,17.25
2023-03-21T15:07:56.598Z,17.02
2023-03-21T15:10:25.272Z,17.16
2023-03-21T15:12:53.828Z,17.32
2023-03-21T15:15:23.875Z,17.41
2023-03-21T15:17:53.849Z,17.36
2023-03-21T15:20:25.587Z,17.23
2023-03-21T15:23:01.174Z,17.04
2023-03-21T15:25:33.761Z,17.04
2023-03-21T15:28:01.259Z,17.04
2023-03-21T15:30:31.112Z,16.96
2023-03-21T15:33:05.452Z,16.94
2023-03-21T15:35:46.303Z,16.91
2023-03-21T15:38:45.300Z,16.89
2023-03-21T15:41:23.061Z,16.71
2023-03-21T15:44:02.083Z,16.53
2023-03-21T15:46:44.096Z,16.53
2023-03-21T15:49:16.759Z,16.53
2023-03-21T15:51:54.708Z,16.42
2023-03-21T15:54:26.026Z,16.40
2023-03-21T15:56:55.199Z,16.36
2023-03-21T15:59:26.630Z,16.23
2023-03-21T16:01:53.652Z,16.22
2023-03-21T16:04:20.459Z,16.22
2023-03-21T16:07:03.284Z,16.34
2023-03-21T16:09:43.109Z,16.25
2023-03-21T16:12:14.281Z,16.13
2023-03-21T16:14:43.042Z,15.94
2023-03-21T16:17:42.530Z,15.95
2023-03-21T16:20:22.835Z,16.06
2023-03-21T16:22:49.745Z,16.26
2023-03-21T16:25:17.041Z,16.36
2023-03-21T16:27:45.564Z,16.42
2023-03-21T16:30:15.642Z,16.52
2023-03-21T16:32:42.974Z,16.53
2023-03-21T16:35:11.175Z,16.54
2023-03-21T16:37:38.594Z,16.48
2023-03-21T16:40:19.768Z,16.42
2023-03-21T16:42:48.136Z,16.38
2023-03-21T16:45:15.467Z,16.30
2023-03-21T16:47:42.562Z,16.27
2023-03-21T16:50:32.473Z,16.23
2023-03-21T16:52:59.965Z,16.17
2023-03-21T16:55:28.593Z,16.17
2023-03-21T16:57:57.336Z,16.20
2023-03-21T17:00:27.222Z,16.22
2023-03-21T17:02:55.873Z,16.11
2023-03-21T17:05:26.188Z,16.10
2023-03-21T17:07:56.896Z,16.09
2023-03-21T17:10:28.297Z,16.11
2023-03-21T17:12:58.775Z,16.11
2023-03-21T17:15:25.608Z,16.10
2023-03-21T17:17:55.446Z,16.12
2023-03-21T17:20:26.397Z,16.05
2023-03-21T17:22:53.111Z,15.92
2023-03-21T17:25:20.502Z,15.91
2023-03-21T17:27:47.993Z,15.97
2023-03-21T17:30:21.789Z,15.98
2023-03-21T17:32:49.631Z,15.96
2023-03-21T17:35:16.644Z,15.91
2023-03-21T17:37:50.022Z,15.89
2023-03-21T17:40:27.076Z,15.85
2023-03-21T17:42:54.019Z,15.80
2023-03-21T17:45:22.064Z,15.80
2023-03-21T17:47:50.091Z,15.76
2023-03-21T17:50:21.621Z,15.72
2023-03-21T17:52:50.714Z,15.67
2023-03-21T17:55:19.688Z,15.67
2023-03-21T17:57:47.014Z,15.60
2023-03-21T18:00:18.017Z,15.50
2023-03-21T18:02:44.603Z,15.50
2023-03-21T18:05:11.508Z,15.52
2023-03-21T18:10:28.342Z,15.72
2023-03-21T18:12:56.364Z,15.69
2023-03-21T18:15:24.632Z,15.62
2023-03-21T18:17:51.569Z,15.55
2023-03-21T18:20:21.248Z,15.54
2023-03-21T18:22:47.979Z,15.46
2023-03-21T18:25:16.490Z,15.32
2023-03-21T18:28:06.955Z,15.21
2023-03-21T18:30:50.455Z,15.20
2023-03-21T18:33:19.387Z,15.11
2023-03-21T18:35:46.807Z,15.07
2023-03-21T18:38:14.409Z,15.02
2023-03-21T18:40:41.884Z,14.96
2023-03-21T18:43:55.883Z,14.94
2023-03-21T18:45:55.863Z,14.93
2023-03-21T18:48:22.903Z,14.93
2023-03-21T18:50:50.483Z,14.88
2023-03-21T18:53:17.727Z,14.82
2023-03-21T18:55:47.640Z,14.75
2023-03-21T18:58:17.055Z,14.67
2023-03-21T19:00:44.493Z,14.65
2023-03-21T19:03:21.545Z,14.61
2023-03-21T19:06:00.796Z,14.58
2023-03-21T19:08:27.547Z,14.53
2023-03-21T19:10:54.541Z,14.57
2023-03-21T19:13:21.415Z,14.67
2023-03-21T19:15:49.683Z,14.78
2023-03-21T19:21:05.787Z,14.90
2023-03-21T19:23:53.264Z,14.89
2023-03-21T19:26:20.679Z,14.85
2023-03-21T19:28:47.743Z,14.79
2023-03-21T19:31:14.838Z,14.74
2023-03-21T19:33:41.543Z,14.77
2023-03-21T19:36:21.121Z,14.78
2023-03-21T19:38:48.756Z,14.71
2023-03-21T19:41:15.518Z,14.73
2023-03-21T19:43:53.133Z,14.76
2023-03-21T19:46:22.675Z,14.69
2023-03-21T19:48:50.304Z,14.61
2023-03-21T19:51:28.226Z,14.59
2023-03-21T19:53:57.127Z,14.53
2023-03-21T19:56:26.999Z,14.47
2023-03-21T19:58:56.148Z,14.44
2023-03-21T20:01:26.340Z,14.44
2023-03-21T20:03:53.940Z,14.42
2023-03-21T20:06:25.164Z,14.47
2023-03-21T20:09:33.963Z,14.49
2023-03-21T20:11:41.278Z,14.49
2023-03-21T20:14:08.798Z,14.54
2023-03-21T20:16:37.242Z,14.63
2023-03-21T20:19:06.109Z,14.71
2023-03-21T20:21:44.391Z,14.77
2023-03-21T20:24:14.850Z,14.80
2023-03-21T20:26:41.610Z,14.86
2023-03-21T20:29:59.922Z,14.88
2023-03-21T20:31:55.668Z,14.79
2023-03-21T20:34:23.152Z,14.74
2023-03-21T20:36:50.582Z,14.73
2023-03-21T20:39:17.959Z,14.72
2023-03-21T20:41:44.932Z,14.70
2023-03-21T20:44:44.843Z,14.63
2023-03-21T20:47:00.611Z,14.66
2023-03-21T20:49:29.031Z,14.75
2023-03-21T20:54:43.562Z,14.89
2023-03-21T20:57:10.842Z,14.86
2023-03-21T20:59:37.648Z,14.79
2023-03-21T21:02:05.326Z,14.72
2023-03-21T21:04:49.849Z,14.62
2023-03-21T21:07:23.336Z,14.53
2023-03-21T21:09:51.192Z,14.47
2023-03-21T21:12:19.362Z,14.41
2023-03-21T21:14:48.360Z,14.34
2023-03-21T21:20:26.043Z,14.14
2023-03-21T21:22:59.399Z,13.98
2023-03-21T21:25:27.169Z,13.92
2023-03-21T21:27:54.864Z,13.85
2023-03-21T21:30:23.147Z,13.71
2023-03-21T21:32:51.331Z,13.70
2023-03-21T21:35:19.705Z,13.71
2023-03-21T21:37:46.786Z,13.69
2023-03-21T21:40:20.400Z,13.68
2023-03-21T21:42:51.390Z,13.67
2023-03-21T21:45:19.667Z,13.63
2023-03-21T21:47:46.573Z,13.61
2023-03-21T21:50:13.696Z,13.59
2023-03-21T21:52:43.902Z,13.59
2023-03-21T21:55:11.584Z,13.51
2023-03-21T21:57:39.826Z,13.45
2023-03-21T22:00:12.886Z,13.40
2023-03-21T22:02:40.700Z,13.37
2023-03-21T22:05:08.920Z,13.39
2023-03-21T22:07:38.059Z,13.44
2023-03-21T22:10:05.875Z,13.45
2023-03-21T22:12:34.397Z,13.47
2023-03-21T22:15:01.455Z,13.48
2023-03-21T22:17:28.421Z,13.51
2023-03-21T22:20:05.728Z,13.56
2023-03-21T22:22:37.057Z,13.56
2023-03-21T22:25:05.880Z,13.56
2023-03-21T22:27:33.542Z,13.57
2023-03-21T22:30:07.542Z,13.59
2023-03-21T22:32:38.067Z,13.63
2023-03-21T22:35:07.079Z,13.76
2023-03-21T22:37:36.485Z,13.86
2023-03-21T22:40:06.217Z,13.80
2023-03-21T22:42:33.006Z,13.69
2023-03-21T22:44:59.963Z,13.52
2023-03-21T22:47:28.523Z,13.47
2023-03-21T22:49:56.350Z,13.47
2023-03-21T22:52:23.830Z,13.52
2023-03-21T22:54:50.578Z,13.58
2023-03-21T22:57:18.391Z,13.62
2023-03-21T22:59:45.027Z,13.70
2023-03-21T23:02:11.879Z,13.79
2023-03-21T23:04:39.415Z,13.87
2023-03-21T23:07:06.695Z,13.96
2023-03-21T23:09:34.003Z,14.01
2023-03-21T23:12:00.733Z,14.08
2023-03-21T23:14:27.471Z,14.12
2023-03-21T23:16:54.859Z,14.16
2023-03-21T23:19:25.153Z,14.19
2023-03-21T23:21:51.874Z,14.19
2023-03-21T23:24:18.638Z,14.19
2023-03-21T23:26:45.566Z,14.09
2023-03-21T23:29:12.514Z,14.10
2023-03-21T23:31:39.748Z,14.12
2023-03-21T23:34:06.517Z,14.05
2023-03-21T23:36:33.296Z,13.92
2023-03-21T23:39:00.164Z,13.73
2023-03-21T23:41:26.895Z,13.70
2023-03-21T23:43:53.647Z,13.77
2023-03-21T23:46:20.957Z,13.82
2023-03-21T23:48:48.323Z,13.78
2023-03-21T23:51:16.443Z,13.81
2023-03-21T23:53:44.884Z,13.84
2023-03-21T23:56:24.848Z,13.90
2023-03-21T23:58:53.810Z,13.86
